Time;durP1;ratioP1;P1;durP2;ratioP2;P2;SDS_P1;SDS_P2;PMS_P1;PMS_P2;Temp;Humidity;BMP_temperature;BMP_pressure;BME280_temperature;BME280_humidity;BME280_pressure;Samples;Min_cycle;Max_cycle;Signal;HPM_P1;HPM_P2
2023/07/23 00:00:41;;;;;;;4.87;4.37;;;15.60;99.90;;;;;;476384;249;28791;-80
2023/07/23 00:02:42;;;;;;;6.23;4.00;;;15.50;99.90;;;;;;476383;249;28815;-79
2023/07/23 00:04:43;;;;;;;4.57;4.17;;;15.40;99.90;;;;;;476360;249;28873;-81
2023/07/23 00:06:44;;;;;;;4.80;4.10;;;15.30;99.90;;;;;;476371;249;28905;-80
2023/07/23 00:08:46;;;;;;;5.50;4.67;;;15.30;99.90;;;;;;476335;249;29262;-78
2023/07/23 00:10:47;;;;;;;4.53;4.00;;;15.30;99.90;;;;;;476352;249;28929;-81
2023/07/23 00:12:48;;;;;;;6.53;4.10;;;15.30;99.90;;;;;;476415;249;28842;-79
2023/07/23 00:14:50;;;;;;;4.87;4.27;;;15.30;99.90;;;;;;476331;249;29223;-80
2023/07/23 00:16:51;;;;;;;4.00;3.60;;;15.30;99.90;;;;;;476351;249;29445;-80
2023/07/23 00:18:52;;;;;;;4.77;4.13;;;15.30;99.90;;;;;;476374;249;29358;-78
2023/07/23 00:20:53;;;;;;;4.10;3.80;;;15.30;99.90;;;;;;476341;249;28862;-80
2023/07/23 00:22:55;;;;;;;5.50;4.00;;;15.30;99.90;;;;;;476429;249;28822;-77
2023/07/23 00:24:57;;;;;;;4.40;3.37;;;15.30;99.90;;;;;;476340;247;28773;-80
2023/07/23 00:26:57;;;;;;;5.43;3.50;;;15.30;99.90;;;;;;476317;247;28909;-79
2023/07/23 00:28:58;;;;;;;5.60;3.80;;;15.30;99.90;;;;;;476377;249;28824;-80
2023/07/23 00:31:00;;;;;;;6.20;3.70;;;15.20;99.90;;;;;;476288;249;28861;-82
2023/07/23 00:33:01;;;;;;;4.23;3.83;;;15.10;99.90;;;;;;476346;249;28901;-81
2023/07/23 00:35:02;;;;;;;6.00;4.57;;;15.10;99.90;;;;;;476387;249;28793;-79
2023/07/23 00:37:03;;;;;;;5.57;4.23;;;15.10;99.90;;;;;;476386;249;28826;-78
2023/07/23 00:39:05;;;;;;;5.70;4.10;;;15.10;99.90;;;;;;476330;249;29472;-79
2023/07/23 00:41:06;;;;;;;4.60;4.17;;;15.10;99.90;;;;;;476330;249;29364;-80
2023/07/23 00:43:07;;;;;;;4.23;3.87;;;15.00;99.90;;;;;;476350;247;29319;-80
2023/07/23 00:45:08;;;;;;;5.93;4.20;;;15.00;99.90;;;;;;476367;249;28874;-80
2023/07/23 00:47:10;;;;;;;4.53;4.13;;;14.90;99.90;;;;;;476390;249;28786;-80
2023/07/23 00:49:11;;;;;;;5.23;3.77;;;14.90;99.90;;;;;;476423;249;28905;-80
2023/07/23 00:51:12;;;;;;;4.53;3.97;;;14.90;99.90;;;;;;476460;248;28781;-79
2023/07/23 00:53:13;;;;;;;4.63;4.23;;;14.90;99.90;;;;;;476367;249;28853;-78
2023/07/23 00:55:15;;;;;;;4.13;3.73;;;14.90;99.90;;;;;;476432;249;28844;-80
2023/07/23 00:57:16;;;;;;;5.17;4.03;;;14.90;99.90;;;;;;476481;249;28863;-77
2023/07/23 00:59:17;;;;;;;8.80;4.57;;;14.90;99.90;;;;;;476489;249;28823;-77
2023/07/23 01:01:18;;;;;;;4.70;4.17;;;14.90;99.90;;;;;;476356;247;28843;-79
2023/07/23 01:03:20;;;;;;;4.57;4.03;;;14.90;99.90;;;;;;476372;249;28926;-80
2023/07/23 01:05:21;;;;;;;5.37;3.53;;;14.90;99.90;;;;;;476414;249;29249;-77
2023/07/23 01:07:22;;;;;;;4.83;4.27;;;14.80;99.90;;;;;;476419;249;28873;-80
2023/07/23 01:09:23;;;;;;;5.90;4.47;;;14.80;99.90;;;;;;476292;249;28881;-80
2023/07/23 01:11:25;;;;;;;5.40;3.90;;;14.80;99.90;;;;;;476313;249;29808;-81
2023/07/23 01:13:26;;;;;;;4.50;4.10;;;14.70;99.90;;;;;;476307;249;29347;-80
2023/07/23 01:15:27;;;;;;;5.10;4.60;;;14.80;99.90;;;;;;476395;249;29501;-80
2023/07/23 01:17:28;;;;;;;7.00;4.13;;;14.70;99.90;;;;;;476387;249;28786;-82
2023/07/23 01:19:30;;;;;;;4.97;4.47;;;14.70;99.90;;;;;;476309;249;28820;-80
2023/07/23 01:21:31;;;;;;;5.20;4.43;;;14.70;99.90;;;;;;476352;249;28896;-81
2023/07/23 01:23:32;;;;;;;6.50;4.73;;;14.70;99.90;;;;;;476392;249;28863;-79
2023/07/23 01:25:33;;;;;;;4.70;4.30;;;14.60;99.90;;;;;;476296;249;28820;-79
2023/07/23 01:27:35;;;;;;;4.97;4.40;;;14.60;99.90;;;;;;476377;249;28908;-80
2023/07/23 01:29:36;;;;;;;4.90;4.30;;;14.60;99.90;;;;;;476443;249;28817;-78
2023/07/23 01:31:37;;;;;;;4.57;4.07;;;14.60;99.90;;;;;;476376;249;28805;-79
2023/07/23 01:33:38;;;;;;;6.50;4.70;;;14.60;99.90;;;;;;476389;249;28825;-80
2023/07/23 01:35:40;;;;;;;4.93;4.37;;;14.70;99.90;;;;;;476398;249;29385;-80
2023/07/23 01:37:41;;;;;;;6.20;4.23;;;14.60;99.90;;;;;;476420;249;29340;-78
2023/07/23 01:39:42;;;;;;;5.47;4.47;;;14.60;99.90;;;;;;476446;249;29477;-77
2023/07/23 01:41:44;;;;;;;4.80;4.40;;;14.50;99.90;;;;;;476376;249;30014;-79
2023/07/23 01:43:45;;;;;;;5.60;4.37;;;14.50;99.90;;;;;;476434;249;29138;-80
2023/07/23 01:45:46;;;;;;;4.67;4.00;;;14.50;99.90;;;;;;476405;249;28836;-78
2023/07/23 01:47:47;;;;;;;4.33;3.93;;;14.40;99.90;;;;;;476442;249;28877;-79
2023/07/23 01:49:48;;;;;;;6.53;4.33;;;14.40;99.90;;;;;;476401;249;28879;-80
2023/07/23 01:51:50;;;;;;;5.03;3.90;;;14.40;99.90;;;;;;476435;249;28786;-78
2023/07/23 01:53:51;;;;;;;4.27;3.87;;;14.40;99.90;;;;;;476391;249;28862;-79
2023/07/23 01:55:53;;;;;;;4.53;4.10;;;14.40;99.90;;;;;;476266;249;28804;-78
2023/07/23 01:57:53;;;;;;;6.30;4.30;;;14.40;99.90;;;;;;476379;247;28893;-81
2023/07/23 01:59:55;;;;;;;5.10;4.30;;;14.50;99.90;;;;;;476374;247;29058;-80
2023/07/23 02:01:56;;;;;;;3.97;3.57;;;14.40;99.90;;;;;;476422;249;29373;-77
2023/07/23 02:03:57;;;;;;;5.17;4.30;;;14.40;99.90;;;;;;476452;249;29252;-78
2023/07/23 02:05:58;;;;;;;4.60;4.20;;;14.40;99.90;;;;;;476444;249;28908;-77
2023/07/23 02:08:00;;;;;;;4.33;3.93;;;14.40;99.90;;;;;;476440;248;28782;-80
2023/07/23 02:10:01;;;;;;;5.40;4.87;;;14.40;99.90;;;;;;476357;249;28912;-79
2023/07/23 02:12:02;;;;;;;5.73;4.50;;;14.40;99.90;;;;;;476431;247;28792;-79
2023/07/23 02:14:03;;;;;;;7.43;4.50;;;14.40;99.90;;;;;;476437;249;28786;-78
2023/07/23 02:16:05;;;;;;;6.47;4.77;;;14.30;99.90;;;;;;476376;248;29242;-80
2023/07/23 02:18:06;;;;;;;8.30;4.83;;;14.30;99.90;;;;;;476350;249;28869;-79
2023/07/23 02:20:08;;;;;;;5.70;4.50;;;14.30;99.90;;;;;;476352;249;29357;-76
2023/07/23 02:22:08;;;;;;;5.50;5.00;;;14.30;99.90;;;;;;476352;249;29385;-77
2023/07/23 02:24:10;;;;;;;5.40;4.50;;;14.20;99.90;;;;;;476429;249;29415;-78
2023/07/23 02:26:11;;;;;;;7.03;4.60;;;14.20;99.90;;;;;;476443;249;28893;-79
2023/07/23 02:28:12;;;;;;;6.23;4.40;;;14.20;99.90;;;;;;476402;249;28907;-80
2023/07/23 02:30:14;;;;;;;6.40;4.80;;;14.30;99.90;;;;;;476367;249;28826;-79
2023/07/23 02:32:15;;;;;;;4.80;3.97;;;14.30;99.90;;;;;;476394;249;28810;-80
2023/07/23 02:34:16;;;;;;;4.80;4.40;;;14.30;99.90;;;;;;476313;249;28777;-79
2023/07/23 02:36:17;;;;;;;7.37;4.50;;;14.40;99.90;;;;;;476352;249;28857;-78
2023/07/23 02:38:18;;;;;;;6.70;4.57;;;14.40;99.90;;;;;;476366;249;28818;-78
2023/07/23 02:40:20;;;;;;;5.10;4.60;;;14.40;99.90;;;;;;476389;249;28831;-78
2023/07/23 02:42:21;;;;;;;6.70;4.97;;;14.30;99.90;;;;;;476408;249;28821;-78
2023/07/23 02:44:22;;;;;;;6.33;4.73;;;14.40;99.90;;;;;;476375;249;29242;-80
2023/07/23 02:46:24;;;;;;;4.93;4.20;;;14.30;99.90;;;;;;476365;249;29401;-80
2023/07/23 02:48:25;;;;;;;5.13;4.13;;;14.30;99.90;;;;;;476345;247;29832;-80
2023/07/23 02:50:26;;;;;;;5.13;4.50;;;14.30;99.90;;;;;;476370;249;29325;-78
2023/07/23 02:52:27;;;;;;;8.83;4.50;;;14.40;99.90;;;;;;476377;249;28822;-77
2023/07/23 02:54:29;;;;;;;4.80;4.30;;;14.40;99.90;;;;;;476368;249;28791;-81
2023/07/23 02:56:30;;;;;;;4.40;4.00;;;14.50;99.90;;;;;;476347;249;28900;-78
2023/07/23 02:58:31;;;;;;;4.23;3.70;;;14.60;99.90;;;;;;476345;249;28782;-79
2023/07/23 03:00:33;;;;;;;5.70;4.00;;;14.60;99.90;;;;;;476410;249;28785;-79
2023/07/23 03:02:34;;;;;;;6.33;4.63;;;14.70;99.90;;;;;;476367;249;28893;-79
2023/07/23 03:04:35;;;;;;;5.47;3.80;;;14.70;99.90;;;;;;476438;249;29148;-79
2023/07/23 03:06:36;;;;;;;5.50;3.97;;;14.80;99.90;;;;;;476394;249;28894;-78
2023/07/23 03:08:37;;;;;;;4.20;3.80;;;14.90;99.90;;;;;;476381;249;30357;-79
2023/07/23 03:10:39;;;;;;;3.77;3.40;;;14.90;99.90;;;;;;476403;249;29312;-78
2023/07/23 03:12:40;;;;;;;3.87;3.50;;;14.80;99.90;;;;;;476433;249;29363;-78
2023/07/23 03:14:42;;;;;;;9.17;4.40;;;14.90;99.90;;;;;;476380;249;29260;-78
2023/07/23 03:16:42;;;;;;;7.60;4.03;;;14.90;99.90;;;;;;476306;249;28856;-80
2023/07/23 03:18:44;;;;;;;8.13;4.00;;;15.00;99.90;;;;;;476345;249;28922;-79
2023/07/23 03:20:45;;;;;;;3.73;3.40;;;15.00;99.90;;;;;;476375;249;29243;-78
2023/07/23 03:22:46;;;;;;;4.63;3.60;;;15.20;99.90;;;;;;476354;249;28798;-79
2023/07/23 03:24:47;;;;;;;5.20;3.60;;;15.20;99.90;;;;;;476361;249;28797;-80
2023/07/23 03:26:49;;;;;;;4.37;3.63;;;15.20;99.90;;;;;;476401;249;28945;-77
2023/07/23 03:28:50;;;;;;;4.27;3.57;;;15.30;99.90;;;;;;476422;249;28822;-78
2023/07/23 03:30:51;;;;;;;4.10;3.47;;;15.50;99.90;;;;;;476239;249;28810;-79
2023/07/23 03:32:52;;;;;;;5.20;3.10;;;15.60;99.90;;;;;;476445;249;28932;-78
2023/07/23 03:34:54;;;;;;;4.70;3.53;;;15.60;99.90;;;;;;476388;248;29296;-79
2023/07/23 03:36:55;;;;;;;4.20;3.80;;;15.60;99.90;;;;;;476415;249;29706;-79
2023/07/23 03:38:56;;;;;;;4.27;3.87;;;15.60;99.90;;;;;;476365;249;29361;-80
2023/07/23 03:40:57;;;;;;;6.97;3.60;;;15.60;99.90;;;;;;476363;249;28774;-81
2023/07/23 03:42:59;;;;;;;5.33;3.50;;;15.50;99.90;;;;;;476325;247;28891;-80
2023/07/23 03:45:00;;;;;;;6.17;3.63;;;15.60;99.90;;;;;;476407;249;28795;-79
2023/07/23 03:47:02;;;;;;;3.83;3.50;;;15.60;99.90;;;;;;476354;249;28852;-79
2023/07/23 03:49:02;;;;;;;5.90;3.73;;;15.50;99.90;;;;;;476244;249;28818;-80
2023/07/23 03:51:04;;;;;;;4.00;3.53;;;15.50;99.90;;;;;;476360;249;28870;-80
2023/07/23 03:53:05;;;;;;;4.00;3.50;;;15.50;99.90;;;;;;476375;249;29265;-79
2023/07/23 03:55:06;;;;;;;3.33;2.90;;;15.50;99.90;;;;;;476357;249;28849;-80
2023/07/23 03:57:07;;;;;;;4.30;3.37;;;15.50;99.90;;;;;;476415;249;28817;-78
2023/07/23 03:59:09;;;;;;;4.20;3.90;;;15.50;99.90;;;;;;476439;249;29359;-78
2023/07/23 04:01:10;;;;;;;4.37;3.00;;;15.50;99.90;;;;;;476366;249;29363;-80
2023/07/23 04:03:11;;;;;;;5.73;3.50;;;15.60;99.90;;;;;;476275;249;29303;-79
2023/07/23 04:05:12;;;;;;;3.70;3.40;;;15.60;99.90;;;;;;476362;249;29261;-80
2023/07/23 04:07:14;;;;;;;5.23;3.57;;;15.60;99.90;;;;;;476405;249;28810;-78
2023/07/23 04:09:15;;;;;;;4.07;3.60;;;15.70;99.90;;;;;;476446;249;28835;-78
2023/07/23 04:11:16;;;;;;;3.00;2.80;;;15.70;99.90;;;;;;476428;249;28940;-79
2023/07/23 04:13:17;;;;;;;4.60;3.60;;;15.70;99.90;;;;;;476369;249;28832;-80
2023/07/23 04:15:19;;;;;;;5.73;3.20;;;15.70;99.90;;;;;;476341;249;28782;-80
2023/07/23 04:17:20;;;;;;;6.80;3.40;;;15.70;99.90;;;;;;476322;249;28812;-80
2023/07/23 04:19:21;;;;;;;5.43;3.87;;;15.80;99.90;;;;;;476387;249;29256;-78
2023/07/23 04:21:22;;;;;;;4.10;3.70;;;15.80;99.90;;;;;;476436;249;28849;-78
2023/07/23 04:23:24;;;;;;;4.03;3.40;;;15.80;99.90;;;;;;476408;247;28817;-79
2023/07/23 04:25:25;;;;;;;4.87;3.53;;;15.90;99.90;;;;;;476392;249;29649;-79
2023/07/23 04:27:26;;;;;;;3.90;3.57;;;15.90;99.90;;;;;;476352;249;29360;-81
2023/07/23 04:29:27;;;;;;;5.20;3.10;;;16.00;99.90;;;;;;476431;249;29435;-76
2023/07/23 04:31:29;;;;;;;4.87;3.70;;;16.00;99.90;;;;;;476423;249;28758;-81
2023/07/23 04:33:30;;;;;;;3.33;3.03;;;16.10;99.90;;;;;;476349;249;28837;-79
2023/07/23 04:35:31;;;;;;;3.50;3.17;;;16.10;99.90;;;;;;476377;249;28811;-80
2023/07/23 04:37:32;;;;;;;4.47;3.20;;;16.10;99.90;;;;;;476408;249;28925;-79
2023/07/23 04:39:34;;;;;;;9.03;3.43;;;16.00;99.90;;;;;;476431;249;28831;-78
2023/07/23 04:41:35;;;;;;;4.70;3.27;;;16.10;99.90;;;;;;476401;249;29130;-80
2023/07/23 04:43:36;;;;;;;5.60;3.43;;;16.10;99.90;;;;;;476367;249;28825;-77
2023/07/23 04:45:38;;;;;;;4.87;2.80;;;16.10;99.90;;;;;;476386;249;28886;-78
2023/07/23 04:47:40;;;;;;;4.50;3.60;;;16.10;99.90;;;;;;476407;249;28908;-78
2023/07/23 04:49:40;;;;;;;6.10;3.40;;;16.20;99.90;;;;;;476315;249;29308;-79
2023/07/23 04:51:41;;;;;;;3.50;3.07;;;16.20;99.90;;;;;;476359;249;29258;-79
2023/07/23 04:53:42;;;;;;;5.87;3.77;;;16.20;99.90;;;;;;476358;249;29288;-80
2023/07/23 04:55:44;;;;;;;4.70;3.43;;;16.20;99.90;;;;;;476350;249;29250;-80
2023/07/23 04:57:45;;;;;;;5.03;3.00;;;16.20;99.90;;;;;;476384;249;29264;-78
2023/07/23 04:59:46;;;;;;;5.00;3.23;;;16.30;99.90;;;;;;476346;249;28805;-79
2023/07/23 05:01:47;;;;;;;4.40;3.50;;;16.30;99.90;;;;;;476354;249;28783;-80
2023/07/23 05:03:49;;;;;;;5.77;3.20;;;16.30;99.90;;;;;;476373;249;28825;-79
2023/07/23 05:05:50;;;;;;;4.00;3.17;;;16.30;99.90;;;;;;476389;249;28888;-78
2023/07/23 05:07:51;;;;;;;4.73;3.63;;;16.30;99.90;;;;;;476369;249;28779;-82
2023/07/23 05:09:52;;;;;;;5.03;3.30;;;16.40;99.90;;;;;;476406;249;28821;-79
2023/07/23 05:11:54;;;;;;;3.40;3.07;;;16.40;99.90;;;;;;476341;249;28799;-77
2023/07/23 05:13:55;;;;;;;4.10;3.10;;;16.40;99.90;;;;;;476378;249;29335;-80
2023/07/23 05:15:56;;;;;;;6.03;3.17;;;16.40;99.90;;;;;;476393;249;29532;-79
2023/07/23 05:17:57;;;;;;;3.30;2.70;;;16.50;99.90;;;;;;476347;249;29348;-80
2023/07/23 05:19:59;;;;;;;4.83;3.43;;;16.60;99.90;;;;;;476299;249;29279;-78
2023/07/23 05:22:00;;;;;;;3.20;2.90;;;16.60;99.90;;;;;;476383;249;28858;-81
2023/07/23 05:24:01;;;;;;;5.20;3.03;;;16.60;99.90;;;;;;476380;249;28912;-79
2023/07/23 05:26:02;;;;;;;2.97;2.73;;;16.70;99.90;;;;;;476388;249;28842;-80
2023/07/23 05:28:04;;;;;;;3.10;2.80;;;16.80;99.90;;;;;;476367;249;28770;-80
2023/07/23 05:30:05;;;;;;;4.00;3.30;;;16.80;99.90;;;;;;476364;249;28826;-81
2023/07/23 05:32:06;;;;;;;9.07;3.33;;;16.90;99.90;;;;;;476363;249;28765;-77
2023/07/23 05:34:07;;;;;;;7.73;3.03;;;16.90;99.90;;;;;;476420;249;28842;-79
2023/07/23 05:36:09;;;;;;;5.00;2.67;;;16.90;99.90;;;;;;476408;249;28941;-77
2023/07/23 05:38:10;;;;;;;2.70;2.50;;;17.00;99.90;;;;;;476408;249;28777;-78
2023/07/23 05:40:11;;;;;;;2.80;2.57;;;17.10;99.90;;;;;;476348;247;28817;-81
2023/07/23 05:42:12;;;;;;;3.90;2.87;;;17.10;99.90;;;;;;476379;249;28777;-81
2023/07/23 05:44:14;;;;;;;4.00;2.93;;;17.10;99.90;;;;;;476331;247;28817;-79
2023/07/23 05:46:16;;;;;;;3.60;2.77;;;17.10;99.90;;;;;;476419;249;28850;-79
2023/07/23 05:48:16;;;;;;;2.70;2.50;;;17.20;99.90;;;;;;476357;249;28846;-80
2023/07/23 05:50:17;;;;;;;3.40;2.60;;;17.20;99.90;;;;;;476407;249;28815;-81
2023/07/23 05:52:19;;;;;;;3.50;3.00;;;17.20;99.90;;;;;;476403;249;28876;-81
2023/07/23 05:54:20;;;;;;;2.83;2.63;;;17.30;99.90;;;;;;476379;249;28826;-82
2023/07/23 05:56:21;;;;;;;3.00;2.70;;;17.30;99.90;;;;;;476401;249;29395;-80
2023/07/23 05:58:22;;;;;;;6.00;2.80;;;17.40;99.90;;;;;;476399;249;29256;-81
2023/07/23 06:00:24;;;;;;;3.13;2.50;;;17.40;99.90;;;;;;476406;249;29313;-79
2023/07/23 06:02:25;;;;;;;3.23;2.77;;;17.50;99.90;;;;;;476371;249;28991;-80
2023/07/23 06:04:26;;;;;;;4.70;2.80;;;17.50;99.90;;;;;;476399;249;28822;-79
2023/07/23 06:06:27;;;;;;;4.50;2.60;;;17.40;99.90;;;;;;476399;249;28825;-79
2023/07/23 06:08:29;;;;;;;3.77;2.17;;;17.50;99.90;;;;;;476296;249;28883;-81
2023/07/23 06:10:30;;;;;;;3.77;2.27;;;17.50;99.90;;;;;;476289;249;28806;-80
2023/07/23 06:12:31;;;;;;;2.60;2.40;;;17.50;99.90;;;;;;476362;249;28916;-80
2023/07/23 06:14:32;;;;;;;2.80;2.60;;;17.60;99.90;;;;;;476409;249;28790;-81
2023/07/23 06:16:34;;;;;;;4.30;2.73;;;17.60;99.90;;;;;;476363;249;28826;-81
2023/07/23 06:18:35;;;;;;;2.83;2.30;;;17.70;99.90;;;;;;476363;249;29325;-80
2023/07/23 06:20:36;;;;;;;3.33;2.60;;;17.80;99.90;;;;;;476337;249;29325;-80
2023/07/23 06:22:37;;;;;;;2.57;2.37;;;17.80;99.90;;;;;;476324;249;30083;-81
2023/07/23 06:24:39;;;;;;;3.90;2.40;;;17.90;99.90;;;;;;476367;249;29390;-81
2023/07/23 06:26:40;;;;;;;3.47;2.60;;;17.90;99.90;;;;;;476382;249;28809;-80
2023/07/23 06:28:41;;;;;;;7.60;2.00;;;17.90;99.90;;;;;;476371;249;28783;-81
2023/07/23 06:30:43;;;;;;;5.23;2.30;;;18.00;99.90;;;;;;476383;249;28905;-81
2023/07/23 06:32:44;;;;;;;2.80;1.93;;;18.00;99.90;;;;;;476308;249;28912;-79
2023/07/23 06:34:45;;;;;;;2.40;2.20;;;18.00;99.90;;;;;;476364;249;29011;-81
2023/07/23 06:36:46;;;;;;;3.53;2.50;;;18.00;99.90;;;;;;476319;249;28884;-79
2023/07/23 06:38:49;;;;;;;2.33;2.13;;;18.00;99.90;;;;;;476302;249;28790;-81
2023/07/23 06:40:49;;;;;;;2.30;2.13;;;18.00;99.90;;;;;;476217;249;28867;-80
2023/07/23 06:42:50;;;;;;;3.00;2.70;;;18.10;99.90;;;;;;476293;247;28843;-80
2023/07/23 06:44:51;;;;;;;2.50;2.30;;;18.10;99.90;;;;;;476350;249;29225;-80
2023/07/23 06:46:53;;;;;;;3.33;2.23;;;18.20;99.90;;;;;;476343;249;29296;-79
2023/07/23 06:48:54;;;;;;;2.73;2.30;;;18.20;99.90;;;;;;476348;249;29252;-80
2023/07/23 06:50:58;;;;;;;2.20;2.00;;;18.20;99.90;;;;;;476359;249;29707;-78
2023/07/23 06:52:59;;;;;;;4.00;2.23;;;18.20;99.90;;;;;;476385;249;28888;-80
2023/07/23 06:55:01;;;;;;;3.17;2.50;;;18.30;99.90;;;;;;476412;249;28826;-79
2023/07/23 06:57:02;;;;;;;2.73;2.40;;;18.30;99.90;;;;;;476317;249;28904;-81
2023/07/23 06:59:04;;;;;;;2.30;2.10;;;18.30;99.90;;;;;;476402;249;28805;-81
2023/07/23 07:01:04;;;;;;;2.50;2.13;;;18.20;99.90;;;;;;476338;249;28789;-81
2023/07/23 07:03:06;;;;;;;2.93;2.67;;;18.20;99.90;;;;;;476383;249;28847;-80
2023/07/23 07:05:07;;;;;;;1.87;1.77;;;18.20;99.90;;;;;;476360;249;29300;-80
2023/07/23 07:07:08;;;;;;;4.97;2.30;;;18.20;99.90;;;;;;476393;249;29263;-81
2023/07/23 07:09:09;;;;;;;4.57;2.30;;;18.20;99.90;;;;;;476356;249;29327;-81
2023/07/23 07:11:11;;;;;;;2.47;2.27;;;18.20;99.90;;;;;;476363;249;29249;-83
2023/07/23 07:13:12;;;;;;;2.33;2.13;;;18.20;99.90;;;;;;476383;249;28918;-80
2023/07/23 07:15:13;;;;;;;4.47;2.50;;;18.30;99.90;;;;;;476379;249;28806;-79
2023/07/23 07:17:14;;;;;;;2.53;2.33;;;18.30;99.90;;;;;;476395;249;28788;-83
2023/07/23 07:19:16;;;;;;;3.30;2.30;;;18.40;99.90;;;;;;476361;249;28820;-80
2023/07/23 07:21:17;;;;;;;2.30;2.10;;;18.40;99.90;;;;;;476318;249;28854;-82
2023/07/23 07:23:18;;;;;;;2.10;2.00;;;18.50;99.90;;;;;;476389;249;28855;-81
2023/07/23 07:25:19;;;;;;;1.97;1.87;;;18.60;99.90;;;;;;476360;249;28843;-80
2023/07/23 07:27:21;;;;;;;2.77;2.57;;;18.70;99.90;;;;;;476380;249;28777;-79
2023/07/23 07:29:22;;;;;;;2.40;2.20;;;18.80;99.90;;;;;;476340;249;28852;-82
2023/07/23 07:31:23;;;;;;;2.23;2.03;;;18.80;99.90;;;;;;476367;249;30115;-84
2023/07/23 07:33:24;;;;;;;2.77;2.00;;;18.80;99.90;;;;;;476405;249;29281;-80
2023/07/23 07:35:26;;;;;;;2.20;2.10;;;18.80;99.90;;;;;;476386;249;29530;-80
2023/07/23 07:37:27;;;;;;;3.13;2.10;;;18.90;99.90;;;;;;476386;249;28864;-81
2023/07/23 07:39:28;;;;;;;2.23;2.03;;;19.00;99.90;;;;;;476420;249;28893;-81
2023/07/23 07:41:29;;;;;;;2.93;2.23;;;19.10;99.90;;;;;;476393;249;28897;-80
2023/07/23 07:43:31;;;;;;;2.27;2.07;;;19.00;99.90;;;;;;476441;249;28872;-81
2023/07/23 07:45:32;;;;;;;2.27;2.07;;;19.00;99.90;;;;;;476392;249;28804;-81
2023/07/23 07:47:33;;;;;;;2.03;1.83;;;19.00;99.90;;;;;;476406;249;28857;-81
2023/07/23 07:49:34;;;;;;;3.20;2.10;;;19.00;99.90;;;;;;476385;249;28907;-80
2023/07/23 07:51:37;;;;;;;2.60;2.10;;;19.00;99.90;;;;;;476397;249;29164;-80
2023/07/23 07:53:37;;;;;;;2.50;2.30;;;19.10;99.90;;;;;;476364;249;28792;-81
2023/07/23 07:55:38;;;;;;;2.03;1.87;;;19.30;99.90;;;;;;476388;249;29272;-81
2023/07/23 07:57:39;;;;;;;2.13;2.03;;;19.40;99.90;;;;;;476383;249;29253;-81
2023/07/23 07:59:41;;;;;;;2.00;1.90;;;19.60;99.90;;;;;;476362;249;29293;-82
2023/07/23 08:01:42;;;;;;;2.10;1.90;;;19.70;99.90;;;;;;476346;249;29356;-79
2023/07/23 08:03:43;;;;;;;3.30;1.87;;;19.70;99.90;;;;;;476361;249;28776;-80
2023/07/23 08:05:44;;;;;;;2.60;2.13;;;19.80;99.90;;;;;;476312;249;28849;-80
2023/07/23 08:07:46;;;;;;;3.57;2.07;;;19.80;99.90;;;;;;476345;249;28807;-82
2023/07/23 08:09:47;;;;;;;2.20;2.00;;;19.70;99.90;;;;;;476363;249;28813;-81
2023/07/23 08:11:48;;;;;;;1.90;1.77;;;19.60;99.90;;;;;;476439;249;28832;-79
2023/07/23 08:13:49;;;;;;;2.10;1.90;;;19.60;99.90;;;;;;476354;249;28852;-82
2023/07/23 08:15:51;;;;;;;2.10;1.90;;;19.60;99.90;;;;;;476355;249;28887;-80
2023/07/23 08:17:52;;;;;;;1.83;1.73;;;19.60;99.90;;;;;;476385;249;28776;-82
2023/07/23 08:19:53;;;;;;;2.10;2.00;;;19.70;99.90;;;;;;476388;249;29363;-81
2023/07/23 08:21:54;;;;;;;2.13;1.93;;;19.60;99.90;;;;;;476388;249;29382;-80
2023/07/23 08:23:56;;;;;;;3.27;2.10;;;19.60;99.90;;;;;;476375;249;29479;-82
2023/07/23 08:25:57;;;;;;;1.90;1.70;;;19.50;99.90;;;;;;476347;249;29278;-80
2023/07/23 08:28:01;;;;;;;5.13;2.00;;;19.60;99.90;;;;;;476336;249;28802;-83
2023/07/23 08:30:02;;;;;;;1.80;1.70;;;19.70;99.90;;;;;;476382;249;29353;-79
2023/07/23 08:32:04;;;;;;;4.27;2.27;;;19.70;99.90;;;;;;476400;249;29361;-82
2023/07/23 08:34:05;;;;;;;1.90;1.80;;;19.70;99.90;;;;;;476355;249;28832;-82
2023/07/23 08:36:06;;;;;;;2.30;2.10;;;19.90;99.90;;;;;;476367;249;28848;-81
2023/07/23 08:38:07;;;;;;;2.93;2.00;;;20.00;99.90;;;;;;476392;249;28827;-81
2023/07/23 08:40:09;;;;;;;2.23;2.03;;;20.00;99.90;;;;;;476363;247;28824;-81
2023/07/23 08:42:10;;;;;;;2.37;1.60;;;20.10;99.90;;;;;;476369;249;28773;-82
2023/07/23 08:44:11;;;;;;;1.93;1.83;;;20.20;99.90;;;;;;476424;249;28834;-80
2023/07/23 08:46:12;;;;;;;1.93;1.77;;;20.30;99.90;;;;;;476376;249;28780;-82
2023/07/23 08:48:15;;;;;;;1.60;1.50;;;20.20;99.90;;;;;;476260;249;28795;-81
2023/07/23 08:50:15;;;;;;;2.10;1.80;;;20.40;99.90;;;;;;476340;249;28871;-80
2023/07/23 08:52:16;;;;;;;1.97;1.70;;;20.60;99.90;;;;;;476414;249;29285;-83
2023/07/23 08:54:19;;;;;;;2.10;1.90;;;20.90;99.90;;;;;;476335;249;29306;-80
2023/07/23 08:56:19;;;;;;;2.00;1.90;;;21.10;99.90;;;;;;476273;249;29335;-82
2023/07/23 08:58:20;;;;;;;4.93;2.07;;;21.20;99.90;;;;;;476410;249;29406;-80
2023/07/23 09:00:22;;;;;;;2.00;1.90;;;21.30;99.90;;;;;;476424;249;28809;-81
2023/07/23 09:02:22;;;;;;;4.00;1.73;;;21.20;99.90;;;;;;476414;249;28856;-81
2023/07/23 09:04:24;;;;;;;1.90;1.80;;;21.30;99.90;;;;;;476411;249;28821;-80
2023/07/23 09:06:25;;;;;;;4.90;1.90;;;21.30;99.90;;;;;;476408;249;28780;-82
2023/07/23 09:08:26;;;;;;;2.70;1.80;;;21.40;99.90;;;;;;476476;247;28912;-83
2023/07/23 09:10:27;;;;;;;2.20;1.70;;;21.20;99.90;;;;;;476483;249;28840;-80
2023/07/23 09:12:29;;;;;;;4.37;2.20;;;21.20;99.90;;;;;;476485;247;28773;-80
2023/07/23 09:14:30;;;;;;;2.23;2.00;;;21.20;99.90;;;;;;476442;249;28809;-82
2023/07/23 09:16:31;;;;;;;4.00;1.70;;;21.20;99.90;;;;;;476450;249;29892;-80
2023/07/23 09:18:32;;;;;;;2.43;1.53;;;21.20;99.90;;;;;;476458;249;29386;-82
2023/07/23 09:20:34;;;;;;;2.77;1.90;;;21.10;99.90;;;;;;476437;249;29338;-81
2023/07/23 09:22:35;;;;;;;2.20;1.90;;;21.20;99.90;;;;;;476440;249;29258;-81
2023/07/23 09:24:36;;;;;;;3.10;2.07;;;21.20;99.90;;;;;;476398;249;28819;-80
2023/07/23 09:26:37;;;;;;;3.20;1.80;;;21.20;99.90;;;;;;476452;249;28844;-82
2023/07/23 09:28:39;;;;;;;2.07;1.87;;;21.20;99.90;;;;;;476432;249;28877;-81
2023/07/23 09:30:40;;;;;;;2.00;1.90;;;21.20;99.90;;;;;;476450;247;28835;-80
2023/07/23 09:32:41;;;;;;;2.10;1.90;;;21.30;99.90;;;;;;476435;249;28772;-82
2023/07/23 09:34:42;;;;;;;1.83;1.60;;;21.40;99.90;;;;;;476439;247;28887;-82
2023/07/23 09:36:44;;;;;;;1.80;1.70;;;21.40;99.90;;;;;;476455;249;28937;-82
2023/07/23 09:38:46;;;;;;;3.30;2.03;;;21.50;99.90;;;;;;476438;249;28768;-82
2023/07/23 09:40:48;;;;;;;3.30;1.70;;;21.50;99.90;;;;;;476398;249;28893;-81
2023/07/23 09:42:47;;;;;;;2.00;1.87;;;21.60;99.90;;;;;;476309;249;29255;-80
2023/07/23 09:44:49;;;;;;;2.30;2.00;;;22.10;99.90;;;;;;476392;249;29286;-81
2023/07/23 09:46:50;;;;;;;2.87;1.90;;;22.30;99.90;;;;;;476453;248;29397;-81
2023/07/23 09:48:51;;;;;;;2.23;2.07;;;22.60;99.90;;;;;;476419;247;28912;-81
2023/07/23 09:50:52;;;;;;;4.90;1.90;;;22.80;99.90;;;;;;476430;249;28906;-80
2023/07/23 09:52:54;;;;;;;2.83;2.17;;;22.80;99.90;;;;;;476367;249;28868;-79
2023/07/23 09:54:55;;;;;;;4.40;1.93;;;22.90;99.90;;;;;;476418;249;28852;-81
2023/07/23 09:56:56;;;;;;;1.80;1.70;;;23.00;99.90;;;;;;476419;249;29242;-80
2023/07/23 09:58:57;;;;;;;2.17;1.97;;;23.00;99.90;;;;;;476412;249;28781;-81
2023/07/23 10:00:59;;;;;;;4.33;1.97;;;23.00;99.90;;;;;;476280;249;28799;-79
2023/07/23 10:03:00;;;;;;;1.73;1.63;;;23.10;99.90;;;;;;476429;249;28886;-79
2023/07/23 10:05:01;;;;;;;4.30;2.20;;;23.20;99.90;;;;;;476412;249;28981;-81
2023/07/23 10:07:02;;;;;;;2.50;1.90;;;23.20;99.90;;;;;;476453;249;28953;-80
2023/07/23 10:09:04;;;;;;;3.10;1.93;;;22.90;99.90;;;;;;476412;249;29340;-80
2023/07/23 10:11:05;;;;;;;1.70;1.60;;;22.80;99.90;;;;;;476402;249;29471;-82
2023/07/23 10:13:06;;;;;;;1.70;1.60;;;22.90;99.90;;;;;;476398;249;29305;-80
2023/07/23 10:15:07;;;;;;;1.80;1.70;;;23.00;99.90;;;;;;476445;249;28811;-81
2023/07/23 10:17:09;;;;;;;1.93;1.83;;;23.40;99.90;;;;;;476459;249;28850;-80
2023/07/23 10:19:10;;;;;;;4.23;2.00;;;23.50;99.90;;;;;;476447;249;28872;-79
2023/07/23 10:21:11;;;;;;;3.30;2.00;;;23.70;99.90;;;;;;476429;249;28928;-79
2023/07/23 10:23:12;;;;;;;3.50;2.10;;;23.70;99.80;;;;;;476387;249;28789;-79
2023/07/23 10:25:14;;;;;;;2.33;1.97;;;23.60;99.70;;;;;;476382;249;28818;-79
2023/07/23 10:27:16;;;;;;;2.03;1.70;;;23.60;99.40;;;;;;476409;249;28911;-80
2023/07/23 10:29:18;;;;;;;2.30;2.10;;;23.60;99.60;;;;;;476336;249;28816;-79
2023/07/23 10:31:17;;;;;;;4.43;1.90;;;23.70;99.70;;;;;;476254;249;29338;-80